createdAt,value
2023-05-02T00:02:16.437Z,79.75
2023-05-02T00:05:03.544Z,79.79
2023-05-02T00:07:51.804Z,80.00
2023-05-02T00:10:38.814Z,80.08
2023-05-02T00:13:25.755Z,80.13
2023-05-02T00:16:12.630Z,79.59
2023-05-02T00:18:59.426Z,79.74
2023-05-02T00:21:49.467Z,80.00
2023-05-02T00:24:36.567Z,80.07
2023-05-02T00:27:23.720Z,80.53
2023-05-02T00:30:10.902Z,80.46
2023-05-02T00:32:58.359Z,80.36
2023-05-02T00:35:45.292Z,80.59
2023-05-02T00:38:32.643Z,80.35
2023-05-02T00:41:19.651Z,80.82
2023-05-02T00:44:07.815Z,80.98
2023-05-02T00:47:08.465Z,81.52
2023-05-02T00:50:15.141Z,81.45
2023-05-02T00:53:04.956Z,81.62
2023-05-02T00:55:51.959Z,81.61
2023-05-02T00:58:41.105Z,81.64
2023-05-02T01:01:55.354Z,81.84
2023-05-02T01:05:20.296Z,82.12
2023-05-02T01:08:34.432Z,81.82
2023-05-02T01:11:53.707Z,82.04
2023-05-02T01:14:47.134Z,82.94
2023-05-02T01:17:35.856Z,83.09
2023-05-02T01:20:27.289Z,83.65
2023-05-02T01:23:23.465Z,83.40
2023-05-02T01:26:15.555Z,83.39
2023-05-02T01:29:04.773Z,84.17
2023-05-02T01:31:52.446Z,84.10
2023-05-02T01:34:41.491Z,84.42
2023-05-02T01:37:30.902Z,84.90
2023-05-02T01:40:20.560Z,84.89
2023-05-02T01:43:09.192Z,84.04
2023-05-02T01:45:57.899Z,84.02
2023-05-02T01:48:48.802Z,84.30
2023-05-02T01:51:40.750Z,84.38
2023-05-02T01:54:27.966Z,85.07
2023-05-02T01:57:17.822Z,84.61
2023-05-02T02:00:06.356Z,84.98
2023-05-02T02:02:55.420Z,85.38
2023-05-02T02:05:42.961Z,85.44
2023-05-02T02:08:29.876Z,85.51
2023-05-02T02:11:26.630Z,85.55
2023-05-02T02:14:25.422Z,84.91
2023-05-02T02:17:24.429Z,85.23
2023-05-02T02:20:13.439Z,85.22
2023-05-02T02:23:05.333Z,84.75
2023-05-02T02:25:53.571Z,84.94
2023-05-02T02:28:40.627Z,85.80
2023-05-02T02:31:35.681Z,85.52
2023-05-02T02:34:22.699Z,85.22
2023-05-02T02:37:17.952Z,85.10
2023-05-02T02:40:34.853Z,84.95
2023-05-02T02:43:54.848Z,84.71
2023-05-02T02:46:50.623Z,84.46
2023-05-02T02:49:43.482Z,85.13
2023-05-02T02:52:40.409Z,86.35
2023-05-02T02:55:42.457Z,86.22
2023-05-02T02:58:38.946Z,86.82
2023-05-02T03:01:30.589Z,85.81
2023-05-02T03:04:20.760Z,86.53
2023-05-02T03:07:08.206Z,85.62
2023-05-02T03:09:55.082Z,85.58
2023-05-02T03:12:41.952Z,84.42
2023-05-02T03:15:54.099Z,84.16
2023-05-02T03:18:41.398Z,84.38
2023-05-02T03:21:28.446Z,83.92
2023-05-02T03:24:19.287Z,83.83
2023-05-02T03:27:06.458Z,83.86
2023-05-02T03:29:53.298Z,83.97
2023-05-02T03:32:40.228Z,83.99
2023-05-02T03:35:27.045Z,84.40
2023-05-02T03:38:13.919Z,84.52
2023-05-02T03:41:00.922Z,83.87
2023-05-02T03:43:47.829Z,84.85
2023-05-02T03:46:34.796Z,84.69
2023-05-02T03:49:21.895Z,83.85
2023-05-02T03:52:08.783Z,84.02
2023-05-02T03:54:55.630Z,83.90
2023-05-02T03:57:42.560Z,83.90
2023-05-02T04:00:29.631Z,84.27
2023-05-02T04:03:16.608Z,83.92
2023-05-02T04:06:03.762Z,83.89
2023-05-02T04:08:50.631Z,83.93
2023-05-02T04:11:37.474Z,83.42
2023-05-02T04:14:24.298Z,84.03
2023-05-02T04:17:11.305Z,83.30
2023-05-02T04:19:58.586Z,83.35
2023-05-02T04:22:48.000Z,83.87
2023-05-02T04:25:34.940Z,83.46
2023-05-02T04:28:22.666Z,83.92
2023-05-02T04:31:09.863Z,84.40
2023-05-02T04:33:56.788Z,83.73
2023-05-02T04:36:45.963Z,83.06
2023-05-02T04:39:33.295Z,83.13
2023-05-02T04:42:20.203Z,83.76
2023-05-02T04:45:07.711Z,83.04
2023-05-02T04:47:54.700Z,83.68
2023-05-02T04:50:41.646Z,83.12
2023-05-02T04:53:28.761Z,82.89
2023-05-02T04:56:15.622Z,83.66
2023-05-02T04:59:02.668Z,82.98
2023-05-02T05:01:49.573Z,83.41
2023-05-02T05:04:36.537Z,82.66
2023-05-02T05:07:23.512Z,83.33
2023-05-02T05:10:11.461Z,83.30
2023-05-02T05:12:58.496Z,83.37
2023-05-02T05:15:45.756Z,83.15
2023-05-02T05:18:34.204Z,83.51
2023-05-02T05:21:21.028Z,83.36
2023-05-02T05:24:08.218Z,83.29
2023-05-02T05:26:55.097Z,83.91
2023-05-02T05:29:41.997Z,83.92
2023-05-02T05:32:29.489Z,83.49
2023-05-02T05:35:16.483Z,83.51
2023-05-02T05:38:03.337Z,83.76
2023-05-02T05:40:51.216Z,83.49
2023-05-02T05:43:38.461Z,83.89
2023-05-02T05:46:25.462Z,83.26
2023-05-02T05:49:12.606Z,84.36
2023-05-02T05:52:00.745Z,84.56
2023-05-02T05:54:47.604Z,84.06
2023-05-02T05:57:34.609Z,84.31
2023-05-02T06:00:21.563Z,84.26
2023-05-02T06:03:09.921Z,84.07
2023-05-02T06:05:56.923Z,84.77
2023-05-02T06:08:43.820Z,84.30
2023-05-02T06:11:30.653Z,84.54
2023-05-02T06:14:17.493Z,85.06
2023-05-02T06:17:04.346Z,84.97
2023-05-02T06:19:51.363Z,85.57
2023-05-02T06:22:39.630Z,85.94
2023-05-02T06:25:26.744Z,86.51
2023-05-02T06:28:13.610Z,85.94
2023-05-02T06:31:02.325Z,87.53
2023-05-02T06:33:49.259Z,87.82
2023-05-02T06:36:36.094Z,88.22
2023-05-02T06:39:23.039Z,88.61
2023-05-02T06:42:09.870Z,88.71
2023-05-02T06:44:56.770Z,88.22
2023-05-02T06:47:43.650Z,87.21
2023-05-02T06:50:30.682Z,86.13
2023-05-02T06:53:17.588Z,85.64
2023-05-02T06:56:05.584Z,85.80
2023-05-02T06:58:52.670Z,85.50
2023-05-02T07:01:39.644Z,85.43
2023-05-02T07:04:30.086Z,84.81
2023-05-02T07:07:18.868Z,85.51
2023-05-02T07:10:06.403Z,85.02
2023-05-02T07:12:53.308Z,84.75
2023-05-02T07:15:40.178Z,84.67
2023-05-02T07:18:27.174Z,83.55
2023-05-02T07:21:14.361Z,84.37
2023-05-02T07:24:01.404Z,83.52
2023-05-02T07:26:48.298Z,84.25
2023-05-02T07:29:35.168Z,83.04
2023-05-02T07:32:22.490Z,82.14
2023-05-02T07:35:09.533Z,83.99
2023-05-02T07:37:56.869Z,82.80
2023-05-02T07:40:43.776Z,82.68
2023-05-02T07:43:30.828Z,81.19
2023-05-02T07:46:17.670Z,80.35
2023-05-02T07:49:04.646Z,79.79
2023-05-02T07:51:51.483Z,78.18
2023-05-02T07:54:38.357Z,80.02
2023-05-02T07:57:26.384Z,80.20
2023-05-02T08:00:14.446Z,80.96
2023-05-02T08:03:01.487Z,80.40
2023-05-02T08:05:48.624Z,80.52
2023-05-02T08:08:36.151Z,81.62
2023-05-02T08:11:25.353Z,82.00
2023-05-02T08:14:12.344Z,82.47
2023-05-02T08:17:00.180Z,81.79
2023-05-02T08:19:47.020Z,81.61
2023-05-02T08:22:33.973Z,79.85
2023-05-02T08:25:20.981Z,80.75
2023-05-02T08:28:07.925Z,79.54
2023-05-02T08:30:54.833Z,80.46
2023-05-02T08:33:41.676Z,81.05
2023-05-02T08:36:28.869Z,79.54
2023-05-02T08:39:17.053Z,79.86
2023-05-02T08:42:08.214Z,79.30
2023-05-02T08:44:55.178Z,80.08
2023-05-02T08:47:42.746Z,79.73
2023-05-02T08:50:30.892Z,79.60
2023-05-02T08:53:18.653Z,79.59
2023-05-02T08:56:07.859Z,78.64
2023-05-02T08:58:54.775Z,78.02
2023-05-02T09:01:44.897Z,78.27
2023-05-02T09:04:35.444Z,78.55
2023-05-02T09:07:22.375Z,79.24
2023-05-02T09:10:09.955Z,78.78
2023-05-02T09:12:56.900Z,76.22
2023-05-02T09:15:57.579Z,77.72
2023-05-02T09:18:44.441Z,78.02
2023-05-02T09:21:43.371Z,79.26
2023-05-02T09:24:30.382Z,78.26
2023-05-02T09:27:17.260Z,77.37
2023-05-02T09:30:26.672Z,79.60
2023-05-02T09:33:27.555Z,78.78
2023-05-02T09:36:16.794Z,77.43
2023-05-02T09:39:16.265Z,75.71
2023-05-02T09:42:03.576Z,78.73
2023-05-02T09:44:50.423Z,78.93
2023-05-02T09:47:37.466Z,79.85
2023-05-02T09:50:37.903Z,77.77
2023-05-02T09:53:27.081Z,77.24
2023-05-02T09:56:14.205Z,76.51
2023-05-02T09:59:16.923Z,74.40
2023-05-02T10:02:05.064Z,75.71
2023-05-02T10:04:53.774Z,73.47
2023-05-02T10:07:40.884Z,73.29
2023-05-02T10:10:28.715Z,73.84
2023-05-02T10:13:19.656Z,73.23
2023-05-02T10:16:07.472Z,73.74
2023-05-02T10:18:57.327Z,72.19
2023-05-02T10:21:44.649Z,72.97
2023-05-02T10:24:34.981Z,73.39
2023-05-02T10:27:22.303Z,74.15
2023-05-02T10:30:10.514Z,76.33
2023-05-02T10:32:59.846Z,75.25
2023-05-02T10:35:47.306Z,78.34
2023-05-02T10:38:35.974Z,76.07
2023-05-02T10:41:26.880Z,77.81
2023-05-02T10:44:13.785Z,75.58
2023-05-02T10:47:01.234Z,76.56
2023-05-02T10:49:52.408Z,75.32
2023-05-02T10:52:41.144Z,74.59
2023-05-02T10:55:28.111Z,74.54
2023-05-02T10:58:22.358Z,76.13
2023-05-02T11:01:28.383Z,76.51
2023-05-02T11:04:15.736Z,75.26
2023-05-02T11:07:18.221Z,76.99
2023-05-02T11:10:17.231Z,76.31
2023-05-02T11:13:04.186Z,77.00
2023-05-02T11:15:51.560Z,77.61
2023-05-02T11:19:01.015Z,76.57
2023-05-02T11:21:47.979Z,76.06
2023-05-02T11:24:42.778Z,76.58
2023-05-02T11:27:29.892Z,78.51
2023-05-02T11:30:37.406Z,79.45
2023-05-02T11:33:24.341Z,78.69
2023-05-02T11:36:11.481Z,79.54
2023-05-02T11:38:58.372Z,81.13
2023-05-02T11:41:47.509Z,80.74
2023-05-02T11:44:35.815Z,80.47
2023-05-02T11:47:22.741Z,81.41
2023-05-02T11:50:10.230Z,82.16
2023-05-02T11:52:57.294Z,82.28
2023-05-02T11:55:54.905Z,82.77
2023-05-02T11:58:41.869Z,82.88
2023-05-02T12:01:29.065Z,82.46
2023-05-02T12:04:16.215Z,81.67
2023-05-02T12:07:03.123Z,79.66
2023-05-02T12:09:53.870Z,79.44
2023-05-02T12:12:43.955Z,82.00
2023-05-02T12:15:30.986Z,82.38
2023-05-02T12:18:21.489Z,82.29
2023-05-02T12:21:09.502Z,82.13
2023-05-02T12:23:57.525Z,80.58
2023-05-02T12:26:44.393Z,80.40
2023-05-02T12:29:38.691Z,79.80
2023-05-02T12:32:30.605Z,81.34
2023-05-02T12:35:23.402Z,82.18
2023-05-02T12:38:12.014Z,81.80
2023-05-02T12:40:58.994Z,80.74
2023-05-02T12:43:48.093Z,82.66
2023-05-02T12:46:35.014Z,82.66
2023-05-02T12:49:22.003Z,82.62
2023-05-02T12:52:08.863Z,83.31
2023-05-02T12:55:18.742Z,82.63
2023-05-02T12:58:10.591Z,83.13
2023-05-02T13:00:57.562Z,81.25
2023-05-02T13:03:44.561Z,80.32
2023-05-02T13:06:31.870Z,81.29
2023-05-02T13:09:18.804Z,81.48
2023-05-02T13:12:06.139Z,79.61
2023-05-02T13:14:53.066Z,80.84
2023-05-02T13:17:40.636Z,81.11
2023-05-02T13:20:27.625Z,80.62
2023-05-02T13:23:16.810Z,81.75
2023-05-02T13:26:04.251Z,78.85
2023-05-02T13:28:51.251Z,79.16
2023-05-02T13:31:38.713Z,78.02
2023-05-02T13:34:25.780Z,77.94
2023-05-02T13:37:12.630Z,79.12
2023-05-02T13:39:59.664Z,79.44
2023-05-02T13:42:46.689Z,80.03
2023-05-02T13:45:34.161Z,79.92
2023-05-02T13:48:21.024Z,79.95
2023-05-02T13:51:08.129Z,81.81
2023-05-02T13:53:55.581Z,80.68
2023-05-02T13:56:42.793Z,80.79
2023-05-02T13:59:29.778Z,80.40
2023-05-02T14:02:17.581Z,79.72
2023-05-02T14:05:04.788Z,79.65
2023-05-02T14:07:51.750Z,81.36
2023-05-02T14:10:39.059Z,81.28
2023-05-02T14:13:26.188Z,81.30
2023-05-02T14:16:13.048Z,81.91
2023-05-02T14:18:59.960Z,82.38
2023-05-02T14:21:47.238Z,82.59
2023-05-02T14:24:34.173Z,81.68
2023-05-02T14:27:21.147Z,83.25
2023-05-02T14:30:08.930Z,83.56
2023-05-02T14:32:56.109Z,84.31
2023-05-02T14:35:43.052Z,85.84
2023-05-02T14:38:29.858Z,85.68
2023-05-02T14:41:16.903Z,83.78
2023-05-02T14:44:03.873Z,83.77
2023-05-02T14:46:54.988Z,83.59
2023-05-02T14:49:41.874Z,83.94
2023-05-02T14:52:28.769Z,83.38
2023-05-02T14:55:15.959Z,82.63
2023-05-02T14:58:03.022Z,83.52
2023-05-02T15:00:50.623Z,83.62
2023-05-02T15:03:49.200Z,83.76
2023-05-02T15:06:43.891Z,84.70
2023-05-02T15:09:30.760Z,85.11
2023-05-02T15:12:17.620Z,85.40
2023-05-02T15:15:04.782Z,86.63
2023-05-02T15:17:52.266Z,87.07
2023-05-02T15:20:39.146Z,87.17
2023-05-02T15:23:26.346Z,87.63
2023-05-02T15:26:14.104Z,87.43
2023-05-02T15:29:01.060Z,88.37
2023-05-02T15:31:48.009Z,88.68
2023-05-02T15:34:34.919Z,88.85
2023-05-02T15:37:21.785Z,89.22
2023-05-02T15:40:09.051Z,90.39
2023-05-02T15:42:55.967Z,90.57
2023-05-02T15:45:42.794Z,91.27
2023-05-02T15:48:33.055Z,90.59
2023-05-02T15:51:20.020Z,91.58
2023-05-02T15:54:07.278Z,92.36
2023-05-02T15:56:54.356Z,92.93
2023-05-02T15:59:41.211Z,92.38
2023-05-02T16:02:28.115Z,92.60
2023-05-02T16:05:15.055Z,92.53
2023-05-02T16:08:02.444Z,93.14
2023-05-02T16:10:49.386Z,93.31
2023-05-02T16:13:36.482Z,94.08
2023-05-02T16:16:23.521Z,94.40
2023-05-02T16:19:14.387Z,93.94
2023-05-02T16:22:01.303Z,93.95
2023-05-02T16:24:48.106Z,94.92
2023-05-02T16:27:35.003Z,95.96
2023-05-02T16:30:21.946Z,95.45
2023-05-02T16:33:08.837Z,95.93
2023-05-02T16:36:02.500Z,96.86
2023-05-02T16:38:49.385Z,97.70
2023-05-02T16:41:36.215Z,97.15
2023-05-02T16:44:23.131Z,97.18
2023-05-02T16:47:10.112Z,97.38
2023-05-02T16:49:58.196Z,96.57
2023-05-02T16:52:45.086Z,96.13
2023-05-02T16:55:32.072Z,95.94
2023-05-02T16:58:19.314Z,96.50
2023-05-02T17:01:06.173Z,96.53
2023-05-02T17:03:53.038Z,97.83
2023-05-02T17:06:39.966Z,97.61
2023-05-02T17:09:26.878Z,98.05
2023-05-02T17:12:15.977Z,97.92
2023-05-02T17:15:04.135Z,98.91
2023-05-02T17:17:51.225Z,99.56
2023-05-02T17:20:38.539Z,98.47
2023-05-02T17:23:28.516Z,99.05
2023-05-02T17:26:15.635Z,100.00
2023-05-02T17:29:02.535Z,100.00
2023-05-02T17:31:49.403Z,100.00
2023-05-02T17:34:36.866Z,100.00
2023-05-02T17:37:23.721Z,100.00
2023-05-02T17:40:11.104Z,100.00
2023-05-02T17:42:59.207Z,100.00
2023-05-02T17:45:46.167Z,100.00
2023-05-02T17:48:32.998Z,100.00
2023-05-02T17:51:19.906Z,100.00
2023-05-02T17:54:06.818Z,100.00
2023-05-02T17:56:54.525Z,100.00
2023-05-02T17:59:41.754Z,100.00
2023-05-02T18:02:28.749Z,100.00
2023-05-02T18:05:17.463Z,100.00
2023-05-02T18:08:04.528Z,100.00
2023-05-02T18:10:56.979Z,100.00
2023-05-02T18:13:44.870Z,100.00
2023-05-02T18:16:34.108Z,98.16
2023-05-02T18:19:22.081Z,96.74
2023-05-02T18:22:08.968Z,95.89
2023-05-02T18:24:55.940Z,96.77
2023-05-02T18:27:42.851Z,97.37
2023-05-02T18:30:29.852Z,97.67
2023-05-02T18:33:18.249Z,97.66
2023-05-02T18:36:05.956Z,99.17
2023-05-02T18:38:53.524Z,99.27
2023-05-02T18:41:40.492Z,98.90
2023-05-02T18:44:27.377Z,97.00
2023-05-02T18:47:14.241Z,96.01
2023-05-02T18:50:01.120Z,97.49
2023-05-02T18:52:47.971Z,97.45
2023-05-02T18:55:34.876Z,96.32
2023-05-02T18:58:22.603Z,95.72
2023-05-02T19:01:16.895Z,94.96
2023-05-02T19:04:03.947Z,95.42
2023-05-02T19:06:53.635Z,95.89
2023-05-02T19:09:40.724Z,95.52
2023-05-02T19:12:27.963Z,95.29
2023-05-02T19:15:15.770Z,96.37
2023-05-02T19:18:02.891Z,96.51
2023-05-02T19:20:50.650Z,96.07
2023-05-02T19:23:37.534Z,96.14
2023-05-02T19:26:24.447Z,96.88
2023-05-02T19:29:11.309Z,96.74
2023-05-02T19:31:58.220Z,96.74
2023-05-02T19:34:45.483Z,96.92
2023-05-02T19:37:32.315Z,96.04
2023-05-02T19:40:19.167Z,96.31
2023-05-02T19:43:06.123Z,96.64
2023-05-02T19:45:53.323Z,96.39
2023-05-02T19:48:40.353Z,97.21
2023-05-02T19:51:28.120Z,97.04
2023-05-02T19:54:15.035Z,96.91
2023-05-02T19:57:03.070Z,97.24
2023-05-02T19:59:51.251Z,96.99
2023-05-02T20:02:38.197Z,96.99
2023-05-02T20:05:25.244Z,96.77
2023-05-02T20:08:12.065Z,97.80
2023-05-02T20:10:58.994Z,98.37
2023-05-02T20:13:45.879Z,97.49
2023-05-02T20:16:32.860Z,96.75
2023-05-02T20:19:21.404Z,95.80
2023-05-02T20:22:08.991Z,97.86
2023-05-02T20:24:55.894Z,99.65
2023-05-02T20:27:43.456Z,100.00
2023-05-02T20:30:30.631Z,100.00
2023-05-02T20:33:18.814Z,100.00
2023-05-02T20:36:06.075Z,100.00
2023-05-02T20:38:53.071Z,100.00
2023-05-02T20:41:39.932Z,100.00
2023-05-02T20:44:26.990Z,99.67
2023-05-02T20:47:13.851Z,99.87
2023-05-02T20:50:01.790Z,99.94
2023-05-02T20:52:48.982Z,100.00
2023-05-02T20:55:36.019Z,100.00
2023-05-02T20:58:23.059Z,99.74
2023-05-02T21:01:10.818Z,100.00
2023-05-02T21:03:57.732Z,99.97
2023-05-02T21:06:44.732Z,99.99
2023-05-02T21:09:31.686Z,100.00
2023-05-02T21:12:18.624Z,100.00
2023-05-02T21:15:07.241Z,100.00
2023-05-02T21:18:12.242Z,99.77
2023-05-02T21:20:59.099Z,99.86
2023-05-02T21:23:46.069Z,99.54
2023-05-02T21:26:32.952Z,99.98
2023-05-02T21:29:19.810Z,99.91
2023-05-02T21:32:06.715Z,99.89
2023-05-02T21:34:53.726Z,100.00
2023-05-02T21:37:40.618Z,100.00
2023-05-02T21:40:28.723Z,100.00
2023-05-02T21:43:15.621Z,100.00
2023-05-02T21:46:02.488Z,100.00
2023-05-02T21:48:49.486Z,100.00
2023-05-02T21:51:38.650Z,100.00
2023-05-02T21:54:25.663Z,100.00
2023-05-02T21:57:12.761Z,100.00
2023-05-02T21:59:59.810Z,100.00
2023-05-02T22:02:47.080Z,100.00
2023-05-02T22:05:41.772Z,100.00
2023-05-02T22:08:28.649Z,100.00
2023-05-02T22:11:15.985Z,100.00
2023-05-02T22:14:02.891Z,100.00
2023-05-02T22:16:50.930Z,99.61
2023-05-02T22:19:38.894Z,99.36
2023-05-02T22:22:25.782Z,99.32
2023-05-02T22:25:12.630Z,99.64
2023-05-02T22:28:03.913Z,99.74
2023-05-02T22:30:51.019Z,99.66
2023-05-02T22:33:37.846Z,99.73
2023-05-02T22:36:24.784Z,99.55
2023-05-02T22:39:12.785Z,99.45
2023-05-02T22:41:59.861Z,99.15
2023-05-02T22:44:54.444Z,99.38
2023-05-02T22:47:41.920Z,99.73
2023-05-02T22:50:31.336Z,100.00
2023-05-02T22:53:18.977Z,100.00
2023-05-02T22:56:06.140Z,100.00
2023-05-02T22:58:53.242Z,100.00
2023-05-02T23:01:41.308Z,100.00
2023-05-02T23:04:28.226Z,100.00
2023-05-02T23:07:15.039Z,100.00
2023-05-02T23:10:02.140Z,100.00
2023-05-02T23:12:49.183Z,100.00
2023-05-02T23:15:36.376Z,100.00
2023-05-02T23:18:23.334Z,99.86
2023-05-02T23:21:17.147Z,100.00
2023-05-02T23:24:04.062Z,99.02
2023-05-02T23:26:51.052Z,99.69
2023-05-02T23:29:37.900Z,99.49
2023-05-02T23:32:24.952Z,99.18
2023-05-02T23:35:12.364Z,99.58
2023-05-02T23:38:00.928Z,99.15
2023-05-02T23:40:47.782Z,99.72
2023-05-02T23:43:34.890Z,99.56
2023-05-02T23:46:21.940Z,99.74
2023-05-02T23:49:08.856Z,99.92
2023-05-02T23:51:55.698Z,100.00
2023-05-02T23:54:42.560Z,100.00
2023-05-02T23:57:30.614Z,100.00
